Time;durP1;ratioP1;P1;durP2;ratioP2;P2;SDS_P1;SDS_P2;PMS_P1;PMS_P2;Temp;Humidity;BMP_temperature;BMP_pressure;BME280_temperature;BME280_humidity;BME280_pressure;Samples;Min_cycle;Max_cycle;Signal;HPM_P1;HPM_P2
2021/12/23 00:02:10;;;;;;;2.22;1.38;;;;;;;-17.55;64.95;99228.53;5013594;28;20137;-57
2021/12/23 00:04:37;;;;;;;0.57;0.57;;;;;;;-17.51;65.27;99234.34;5013857;28;20421;-56
2021/12/23 00:07:04;;;;;;;1.40;1.05;;;;;;;-17.48;65.47;99231.38;5009647;28;20049;-60
2021/12/23 00:10:01;;;;;;;3.38;1.77;;;;;;;-17.42;65.16;99228.84;5013818;28;20104;-63
2021/12/23 00:12:19;;;;;;;2.05;1.30;;;;;;;-17.34;64.65;99215.56;5012854;28;20058;-60
2021/12/23 00:14:46;;;;;;;2.30;1.23;;;;;;;-17.29;64.97;99215.91;5012414;28;20073;-59
2021/12/23 00:17:26;;;;;;;1.85;1.42;;;;;;;-17.21;64.27;99220.41;5013901;28;20069;-59
2021/12/23 00:25:18;;;;;;;2.58;1.52;;;;;;;-17.11;65.65;99199.78;5013476;28;20589;-56
2021/12/23 00:27:45;;;;;;;1.10;1.00;;;;;;;-17.09;65.38;99195.16;5013346;28;20390;-55
2021/12/23 00:30:12;;;;;;;6.05;2.45;;;;;;;-17.00;64.60;99188.81;5012794;28;20112;-55
2021/12/23 00:32:39;;;;;;;1.42;1.02;;;;;;;-16.96;64.85;99190.13;5013794;28;20058;-50
2021/12/23 00:35:09;;;;;;;0.75;0.75;;;;;;;-16.92;65.08;99183.47;5012987;28;20115;-56
2021/12/23 00:37:40;;;;;;;1.53;1.23;;;;;;;-16.88;65.40;99190.13;5013344;28;20410;-56
2021/12/23 00:40:11;;;;;;;1.40;1.13;;;;;;;-16.82;64.65;99189.47;5013164;28;20050;-57
2021/12/23 00:42:39;;;;;;;5.97;1.92;;;;;;;-16.79;65.38;99179.28;5013390;28;20049;-57
2021/12/23 00:45:06;;;;;;;0.60;0.60;;;;;;;-16.68;65.55;99180.81;5012504;28;20053;-56
2021/12/23 00:47:33;;;;;;;1.02;0.60;;;;;;;-16.64;65.29;99184.78;5012868;28;20041;-54
2021/12/23 00:50:00;;;;;;;1.70;1.23;;;;;;;-16.62;65.92;99169.47;5013006;28;20167;-52
2021/12/23 00:52:33;;;;;;;1.05;0.95;;;;;;;-16.59;65.19;99169.94;5011957;28;20072;-56
2021/12/23 00:55:01;;;;;;;2.58;1.45;;;;;;;-16.55;65.21;99167.78;5012618;28;20045;-54
2021/12/23 00:57:30;;;;;;;2.20;1.00;;;;;;;-16.49;65.57;99177.75;5013400;28;20045;-58
2021/12/23 00:59:58;;;;;;;2.55;1.45;;;;;;;-16.43;66.03;99182.38;5012842;28;20145;-53
2021/12/23 01:02:31;;;;;;;1.00;0.90;;;;;;;-16.35;65.59;99190.31;5012257;28;20411;-57
2021/12/23 01:04:59;;;;;;;0.65;0.65;;;;;;;-16.25;65.50;99188.28;5008947;28;20054;-54
2021/12/23 01:07:26;;;;;;;3.55;2.05;;;;;;;-16.21;65.82;99177.09;5013207;28;20132;-58
2021/12/23 01:09:53;;;;;;;3.85;1.75;;;;;;;-16.16;65.68;99177.41;5012790;28;20065;-56
2021/12/23 01:12:27;;;;;;;4.47;2.13;;;;;;;-16.10;65.96;99182.06;5012823;28;20524;-56
2021/12/23 01:14:58;;;;;;;1.20;0.80;;;;;;;-16.06;65.27;99179.84;5012919;28;20045;-54
2021/12/23 01:19:55;;;;;;;0.70;0.65;;;;;;;-16.03;66.95;99182.16;5012526;28;20053;-54
2021/12/23 01:22:23;;;;;;;0.80;0.80;;;;;;;-15.98;66.75;99178.00;5012657;28;20049;-55
2021/12/23 01:24:50;;;;;;;2.33;1.30;;;;;;;-15.91;67.08;99170.13;5012712;28;20425;-55
2021/12/23 01:27:17;;;;;;;1.42;1.33;;;;;;;-15.78;67.07;99175.72;5010349;28;20124;-55
2021/12/23 01:29:44;;;;;;;1.30;0.68;;;;;;;-15.69;66.93;99174.66;5012704;28;20069;-54
2021/12/23 01:32:11;;;;;;;0.80;0.80;;;;;;;-15.59;67.37;99177.94;5012382;28;20128;-56
2021/12/23 01:34:38;;;;;;;1.98;0.95;;;;;;;-15.52;67.68;99176.19;5012633;28;20056;-56
2021/12/23 01:37:06;;;;;;;1.20;1.10;;;;;;;-15.48;67.11;99177.53;5010706;28;20073;-57
2021/12/23 01:39:33;;;;;;;0.80;0.80;;;;;;;-15.41;67.58;99177.63;5012591;28;20080;-55
2021/12/23 01:42:02;;;;;;;0.90;0.90;;;;;;;-15.37;67.45;99174.47;5011923;28;20096;-56
2021/12/23 01:44:31;;;;;;;2.40;1.80;;;;;;;-15.32;67.46;99177.38;5012741;28;20050;-54
2021/12/23 01:46:58;;;;;;;9.68;1.27;;;;;;;-15.27;67.90;99180.34;5011907;28;20060;-56
2021/12/23 01:49:25;;;;;;;4.75;1.02;;;;;;;-15.20;67.59;99167.13;5012677;28;20404;-55
2021/12/23 01:51:52;;;;;;;2.25;1.67;;;;;;;-15.14;67.80;99169.88;5009867;28;20045;-57
2021/12/23 01:54:19;;;;;;;0.70;0.70;;;;;;;-15.09;67.20;99172.00;5012365;28;20108;-54
2021/12/23 01:56:46;;;;;;;1.85;1.15;;;;;;;-15.04;67.80;99165.16;5010539;28;20053;-52
2021/12/23 01:59:15;;;;;;;3.55;1.60;;;;;;;-14.99;67.78;99168.09;5011364;28;20050;-55
2021/12/23 02:01:44;;;;;;;2.58;1.33;;;;;;;-14.96;67.71;99167.72;5012137;28;20085;-54
2021/12/23 02:04:11;;;;;;;4.88;1.65;;;;;;;-14.96;67.88;99165.06;5012028;28;20052;-53
2021/12/23 02:06:38;;;;;;;7.10;2.20;;;;;;;-14.96;67.73;99167.72;5012085;28;20136;-54
2021/12/23 02:09:05;;;;;;;4.18;2.00;;;;;;;-14.98;67.32;99169.75;5010201;28;20399;-55
2021/12/23 02:11:32;;;;;;;1.10;1.05;;;;;;;-14.92;67.95;99166.38;5012613;28;20053;-52
2021/12/23 02:13:59;;;;;;;1.00;0.95;;;;;;;-14.84;67.47;99168.94;5010425;28;20473;-53
2021/12/23 02:16:27;;;;;;;6.40;2.72;;;;;;;-14.79;67.41;99158.56;5010723;28;20049;-57
2021/12/23 02:18:54;;;;;;;1.33;0.95;;;;;;;-14.73;67.14;99163.19;5011524;28;20137;-57
2021/12/23 02:21:21;;;;;;;3.72;1.67;;;;;;;-14.72;67.27;99162.16;5012034;28;20061;-57
2021/12/23 02:23:48;;;;;;;2.20;1.60;;;;;;;-14.80;67.15;99156.91;5011811;28;20509;-55
2021/12/23 02:26:15;;;;;;;7.70;1.40;;;;;;;-14.77;67.83;99159.22;5011988;28;20128;-53
2021/12/23 02:28:42;;;;;;;2.58;1.85;;;;;;;-14.73;67.40;99157.84;5009490;28;20402;-56
2021/12/23 02:31:09;;;;;;;2.35;1.75;;;;;;;-14.71;67.57;99161.16;5012057;28;20132;-53
2021/12/23 02:33:36;;;;;;;3.67;1.85;;;;;;;-14.71;67.31;99145.16;5011548;28;20412;-54
2021/12/23 02:36:03;;;;;;;2.33;1.25;;;;;;;-14.67;67.42;99162.44;5007566;28;20050;-56
2021/12/23 02:38:30;;;;;;;4.28;1.98;;;;;;;-14.60;66.88;99152.69;5009015;28;20052;-54
2021/12/23 02:40:57;;;;;;;2.05;1.60;;;;;;;-14.53;67.02;99153.63;5010935;28;20060;-55
2021/12/23 02:43:27;;;;;;;2.13;1.65;;;;;;;-14.48;66.87;99150.41;5010334;28;20054;-55
2021/12/23 02:45:58;;;;;;;9.55;2.17;;;;;;;-14.46;67.08;99159.88;5010425;28;20085;-55
2021/12/23 02:48:30;;;;;;;1.40;1.05;;;;;;;-14.43;66.91;99142.66;5011570;28;20416;-56
2021/12/23 02:50:58;;;;;;;3.08;1.25;;;;;;;-14.39;66.47;99155.44;5009953;28;20050;-50
2021/12/23 02:53:25;;;;;;;2.13;1.70;;;;;;;-14.37;67.02;99148.09;5009822;28;20099;-57
2021/12/23 02:55:55;;;;;;;5.78;1.92;;;;;;;-14.29;66.65;99156.03;5008269;28;20088;-55
2021/12/23 02:58:22;;;;;;;2.30;1.65;;;;;;;-14.24;66.80;99155.47;5011888;28;20046;-55
2021/12/23 03:00:51;;;;;;;5.30;2.42;;;;;;;-14.16;66.64;99155.31;5011525;28;20527;-56
2021/12/23 03:03:19;;;;;;;2.95;1.80;;;;;;;-14.10;66.80;99166.09;5012021;28;20050;-57
2021/12/23 03:05:48;;;;;;;5.82;1.70;;;;;;;-14.07;67.11;99160.38;5010994;28;20290;-56
2021/12/23 03:08:16;;;;;;;3.60;1.50;;;;;;;-14.05;66.62;99163.69;5011333;28;20050;-55
2021/12/23 03:10:43;;;;;;;1.48;1.27;;;;;;;-14.10;66.92;99166.09;5011504;28;20141;-55
2021/12/23 03:13:10;;;;;;;3.95;2.45;;;;;;;-14.08;67.05;99157.88;5015328;28;20446;-54
2021/12/23 03:15:37;;;;;;;3.33;1.98;;;;;;;-13.99;66.60;99154.09;5014501;28;20398;-59
2021/12/23 03:18:04;;;;;;;1.08;0.98;;;;;;;-13.93;67.25;99153.34;5015245;28;20050;-58
2021/12/23 03:20:31;;;;;;;5.68;1.92;;;;;;;-13.90;67.39;99159.16;5014422;28;20057;-56
2021/12/23 03:22:58;;;;;;;3.47;1.83;;;;;;;-13.87;66.81;99149.94;5015201;28;20144;-58
2021/12/23 03:25:24;;;;;;;4.45;1.90;;;;;;;-13.82;67.42;99153.72;5014543;28;20409;-56
2021/12/23 03:27:51;;;;;;;6.55;1.65;;;;;;;-13.77;67.66;99142.47;5013071;28;20092;-60
2021/12/23 03:30:18;;;;;;;2.47;1.42;;;;;;;-13.72;67.42;99142.69;5014537;28;20085;-57
2021/12/23 03:32:45;;;;;;;3.63;2.60;;;;;;;-13.70;66.95;99146.84;5014844;28;20404;-53
2021/12/23 03:35:12;;;;;;;2.00;1.58;;;;;;;-13.67;66.63;99130.44;5014616;28;20049;-57
2021/12/23 03:37:39;;;;;;;2.97;1.73;;;;;;;-13.66;67.91;99132.09;5014576;28;20056;-58
2021/12/23 03:40:06;;;;;;;5.03;2.22;;;;;;;-13.71;67.71;99129.16;5014327;28;20509;-57
2021/12/23 03:42:34;;;;;;;2.80;1.52;;;;;;;-13.67;67.59;99119.75;5014236;28;20132;-58
2021/12/23 03:45:01;;;;;;;6.15;2.20;;;;;;;-13.61;67.46;99120.81;5014338;28;20072;-54
2021/12/23 03:47:29;;;;;;;1.67;1.40;;;;;;;-13.57;67.61;99119.41;5014368;28;20514;-59
2021/12/23 03:49:56;;;;;;;4.25;2.45;;;;;;;-13.51;66.91;99121.31;5014157;28;20045;-58
2021/12/23 03:52:23;;;;;;;2.13;1.33;;;;;;;-13.50;67.43;99124.84;5012222;28;20469;-58
2021/12/23 03:54:50;;;;;;;4.50;1.52;;;;;;;-13.49;66.99;99126.50;5013995;28;20057;-58
2021/12/23 03:57:17;;;;;;;1.17;1.08;;;;;;;-13.44;67.40;99124.06;5013974;28;20052;-58
2021/12/23 03:59:44;;;;;;;2.30;1.58;;;;;;;-13.39;67.55;99121.66;5014119;28;20088;-59
2021/12/23 04:02:10;;;;;;;4.20;2.33;;;;;;;-13.33;67.42;99120.91;5013891;28;20053;-58
2021/12/23 04:04:38;;;;;;;4.72;2.72;;;;;;;-13.29;66.88;99123.00;5009605;28;20136;-58
2021/12/23 04:07:05;;;;;;;2.65;1.42;;;;;;;-13.25;66.80;99118.91;5013533;28;20079;-58
2021/12/23 04:09:32;;;;;;;8.07;2.58;;;;;;;-13.27;66.66;99120.13;5012960;28;20447;-58
2021/12/23 04:11:59;;;;;;;2.08;1.10;;;;;;;-13.27;67.31;99125.47;5014422;28;20058;-60
2021/12/23 04:14:26;;;;;;;1.25;1.00;;;;;;;-13.30;66.92;99131.22;5013608;28;20068;-59
2021/12/23 04:16:53;;;;;;;1.27;1.13;;;;;;;-13.31;67.94;99119.69;5014385;28;20497;-56
2021/12/23 04:19:27;;;;;;;1.05;1.00;;;;;;;-13.25;67.30;99123.44;5011873;28;20475;-55
2021/12/23 04:21:54;;;;;;;2.47;1.67;;;;;;;-13.24;67.47;99117.06;5013371;28;20456;-53
2021/12/23 04:24:21;;;;;;;2.42;1.55;;;;;;;-13.20;67.61;99113.81;5012707;28;20073;-65
2021/12/23 04:26:48;;;;;;;2.83;1.77;;;;;;;-13.12;67.30;99112.84;5013728;28;20060;-64
2021/12/23 04:29:15;;;;;;;4.43;1.90;;;;;;;-13.09;66.83;99112.47;5011815;28;20119;-65
2021/12/23 04:31:42;;;;;;;1.88;1.10;;;;;;;-13.08;67.68;99108.75;5013398;28;20046;-65
2021/12/23 04:34:09;;;;;;;9.75;3.08;;;;;;;-13.06;67.16;99104.88;5013066;28;20054;-65
2021/12/23 04:36:36;;;;;;;6.88;2.25;;;;;;;-13.01;67.94;99109.63;5013600;28;20140;-66
2021/12/23 04:39:05;;;;;;;7.38;2.72;;;;;;;-12.96;68.49;99113.38;5011439;28;20081;-66
2021/12/23 04:41:32;;;;;;;2.78;1.52;;;;;;;-12.95;67.84;99111.50;5013203;28;20052;-65
2021/12/23 04:43:59;;;;;;;4.30;1.92;;;;;;;-12.93;67.75;99120.19;5011912;28;20065;-65
2021/12/23 04:46:26;;;;;;;5.43;2.40;;;;;;;-12.91;68.62;99118.13;5010199;28;20437;-66
2021/12/23 04:48:53;;;;;;;1.67;1.40;;;;;;;-12.86;68.35;99121.03;5012660;28;20050;-60
2021/12/23 04:51:20;;;;;;;4.82;2.60;;;;;;;-12.82;68.38;99120.50;5013299;28;20054;-59
2021/12/23 04:53:48;;;;;;;7.72;2.45;;;;;;;-12.76;68.24;99113.50;5013204;28;20136;-58
2021/12/23 04:56:18;;;;;;;3.03;1.75;;;;;;;-12.70;68.54;99129.63;5012865;28;20137;-58
2021/12/23 04:58:46;;;;;;;6.97;3.03;;;;;;;-12.67;68.12;99126.56;5012935;28;20077;-60
2021/12/23 05:01:20;;;;;;;4.30;2.42;;;;;;;-12.66;68.76;99125.53;5011030;28;20050;-59
2021/12/23 05:03:48;;;;;;;0.70;0.70;;;;;;;-12.59;69.29;99133.63;5012702;28;20053;-60
2021/12/23 05:06:16;;;;;;;7.03;1.85;;;;;;;-12.55;69.39;99137.56;5010977;28;20115;-58
2021/12/23 05:08:43;;;;;;;2.00;1.50;;;;;;;-12.51;68.84;99141.47;5012944;28;20050;-60
2021/12/23 05:11:10;;;;;;;3.92;2.47;;;;;;;-12.50;68.41;99149.31;5012725;28;20505;-63
2021/12/23 05:13:37;;;;;;;7.63;3.00;;;;;;;-12.41;68.65;99147.34;5012984;28;20049;-59
2021/12/23 05:16:04;;;;;;;4.25;2.40;;;;;;;-12.37;68.33;99145.91;5011513;28;20108;-59
2021/12/23 05:18:31;;;;;;;4.07;2.33;;;;;;;-12.33;68.28;99157.88;5012392;28;20109;-60
2021/12/23 05:20:58;;;;;;;6.05;2.40;;;;;;;-12.32;68.39;99151.50;5012646;28;20535;-60
2021/12/23 05:23:25;;;;;;;3.03;1.90;;;;;;;-12.28;68.21;99153.59;5012775;28;20535;-66
2021/12/23 05:25:52;;;;;;;6.97;3.80;;;;;;;-12.27;68.95;99152.56;5012291;28;20054;-66
2021/12/23 05:28:19;;;;;;;5.45;2.65;;;;;;;-12.23;68.60;99153.00;5010594;28;20052;-66
2021/12/23 05:30:46;;;;;;;1.70;1.50;;;;;;;-12.23;68.63;99147.66;5012438;28;20057;-65
2021/12/23 05:33:13;;;;;;;5.00;2.80;;;;;;;-12.24;69.14;99146.81;5012412;28;20081;-66
2021/12/23 05:35:41;;;;;;;5.97;3.05;;;;;;;-12.23;69.39;99155.69;5012010;28;20061;-66
2021/12/23 05:38:07;;;;;;;2.17;1.55;;;;;;;-12.24;68.03;99151.34;5010147;28;20041;-66
2021/12/23 05:40:35;;;;;;;4.85;2.17;;;;;;;-12.19;67.87;99151.56;5010618;28;20508;-66
2021/12/23 05:43:03;;;;;;;5.35;2.25;;;;;;;-12.12;68.72;99161.31;5011982;28;20457;-66
2021/12/23 05:45:30;;;;;;;6.50;3.38;;;;;;;-12.11;68.38;99159.47;5012266;28;20057;-66
2021/12/23 05:47:57;;;;;;;4.40;2.53;;;;;;;-12.12;67.98;99155.09;5012090;28;20077;-66
2021/12/23 05:50:24;;;;;;;4.45;2.28;;;;;;;-12.10;68.87;99158.44;5012287;28;20464;-66
2021/12/23 05:52:52;;;;;;;3.92;2.05;;;;;;;-12.02;68.70;99148.34;5011587;28;20042;-66
2021/12/23 05:55:19;;;;;;;4.60;2.38;;;;;;;-11.96;68.01;99149.44;5009876;28;20081;-66
2021/12/23 05:57:47;;;;;;;7.32;2.40;;;;;;;-11.88;67.92;99151.91;5007332;28;20133;-66
2021/12/23 06:00:28;;;;;;;3.80;2.22;;;;;;;-11.83;68.89;99150.31;5009602;28;20429;-66
2021/12/23 06:02:57;;;;;;;6.85;3.67;;;;;;;-11.84;67.60;99162.03;5009232;28;20521;-66
2021/12/23 06:05:28;;;;;;;4.70;2.78;;;;;;;-11.81;68.43;99150.13;5010020;28;20046;-65
2021/12/23 06:07:55;;;;;;;5.45;3.17;;;;;;;-11.83;67.98;99144.94;5007075;28;20053;-65
2021/12/23 06:10:22;;;;;;;4.70;2.83;;;;;;;-11.77;68.20;99162.94;5008684;28;20527;-66
2021/12/23 06:12:49;;;;;;;5.53;1.85;;;;;;;-11.76;69.17;99156.53;5008284;28;20046;-67
2021/12/23 06:15:16;;;;;;;0.77;0.77;;;;;;;-11.74;68.19;99150.97;5009717;28;20099;-67
2021/12/23 06:17:44;;;;;;;6.13;3.20;;;;;;;-11.71;67.39;99153.25;5011088;28;20053;-66
2021/12/23 06:20:12;;;;;;;4.25;1.95;;;;;;;-11.65;69.05;99157.78;5009043;28;20053;-67
2021/12/23 06:22:39;;;;;;;2.15;1.42;;;;;;;-11.65;67.36;99152.44;5006952;28;20073;-66
2021/12/23 06:25:09;;;;;;;3.13;1.65;;;;;;;-11.56;67.73;99148.50;5008215;28;20045;-67
2021/12/23 06:27:36;;;;;;;7.90;2.00;;;;;;;-11.48;68.03;99159.06;5009741;28;20046;-67
2021/12/23 06:30:19;;;;;;;5.65;1.90;;;;;;;-11.40;68.04;99155.38;5009154;28;20413;-66
2021/12/23 06:32:49;;;;;;;3.80;2.40;;;;;;;-11.31;68.44;99155.00;5008150;28;20501;-68
2021/12/23 06:35:17;;;;;;;1.70;0.88;;;;;;;-11.23;67.47;99160.16;5008988;28;20077;-67
2021/12/23 06:37:44;;;;;;;3.15;2.00;;;;;;;-11.21;67.58;99160.78;5008267;28;20057;-67
2021/12/23 06:40:12;;;;;;;6.80;3.20;;;;;;;-11.17;67.39;99155.84;5009003;28;20088;-66
2021/12/23 06:42:40;;;;;;;2.58;1.42;;;;;;;-11.16;67.19;99157.50;5008216;28;20045;-66
2021/12/23 06:45:08;;;;;;;6.05;2.50;;;;;;;-11.12;67.01;99148.81;5009643;28;20133;-67
2021/12/23 06:47:35;;;;;;;6.03;2.90;;;;;;;-11.16;67.75;99166.38;5014388;28;20046;-67
2021/12/23 06:50:07;;;;;;;5.85;2.50;;;;;;;-11.13;66.77;99165.13;5012279;28;20050;-67
2021/12/23 06:52:36;;;;;;;10.32;2.50;;;;;;;-11.16;67.96;99144.91;5013558;28;20104;-66
2021/12/23 06:55:06;;;;;;;2.17;0.90;;;;;;;-11.10;66.69;99146.78;5012287;28;20477;-67
2021/12/23 06:57:33;;;;;;;4.88;2.00;;;;;;;-11.09;66.86;99148.41;5012759;28;20053;-67
2021/12/23 07:00:00;;;;;;;9.50;3.90;;;;;;;-11.04;66.24;99150.47;5014081;28;20049;-67
2021/12/23 07:02:28;;;;;;;5.03;2.08;;;;;;;-11.01;66.77;99150.91;5012534;28;20037;-67
2021/12/23 07:04:55;;;;;;;2.05;1.75;;;;;;;-11.04;66.89;99159.38;5011188;28;20045;-67
2021/12/23 07:07:28;;;;;;;8.05;2.45;;;;;;;-11.13;66.31;99147.19;5015112;28;20057;-67
2021/12/23 07:09:56;;;;;;;10.90;2.10;;;;;;;-11.06;66.93;99145.31;5014361;28;20521;-67
2021/12/23 07:12:23;;;;;;;4.90;2.22;;;;;;;-10.98;67.27;99133.56;5015421;28;20073;-66
2021/12/23 07:14:50;;;;;;;4.95;2.20;;;;;;;-10.96;66.98;99143.03;5014406;28;20080;-66
2021/12/23 07:17:22;;;;;;;6.45;2.28;;;;;;;-10.91;66.34;99135.22;5015022;28;20060;-67
2021/12/23 07:19:49;;;;;;;7.40;3.10;;;;;;;-10.82;66.47;99143.88;5014814;28;20488;-67
2021/12/23 07:22:16;;;;;;;5.88;2.88;;;;;;;-10.75;65.98;99140.16;5013854;28;20501;-66
2021/12/23 07:24:43;;;;;;;3.78;1.98;;;;;;;-10.64;66.50;99136.84;5014351;28;20081;-67
2021/12/23 07:27:10;;;;;;;4.20;1.70;;;;;;;-10.58;66.02;99144.09;5013245;28;20501;-67
2021/12/23 07:29:37;;;;;;;8.82;2.72;;;;;;;-10.62;66.08;99140.16;5013504;28;20095;-66
2021/12/23 07:32:06;;;;;;;2.38;0.98;;;;;;;-10.61;66.01;99144.50;5014466;28;20081;-67
2021/12/23 07:34:33;;;;;;;4.22;2.20;;;;;;;-10.65;65.58;99129.84;5014415;28;20049;-67
2021/12/23 07:37:00;;;;;;;4.45;1.70;;;;;;;-10.67;65.59;99142.63;5013361;28;20096;-67
2021/12/23 07:39:27;;;;;;;5.20;2.55;;;;;;;-10.66;66.00;99149.66;5013077;28;20129;-68
2021/12/23 07:42:15;;;;;;;6.70;3.28;;;;;;;-10.65;65.67;99145.13;5015050;28;20054;-66
2021/12/23 07:44:43;;;;;;;20.58;5.18;;;;;;;-10.64;65.97;99139.53;5014083;28;20509;-66
2021/12/23 07:47:11;;;;;;;4.68;2.38;;;;;;;-10.59;66.11;99146.97;5014686;28;20069;-67
2021/12/23 07:49:38;;;;;;;6.40;2.80;;;;;;;-10.53;66.23;99143.47;5014135;28;20074;-66
2021/12/23 07:52:08;;;;;;;3.42;1.70;;;;;;;-10.46;65.47;99142.41;5012408;28;20133;-66
2021/12/23 07:54:35;;;;;;;3.25;1.67;;;;;;;-10.48;65.36;99133.72;5014091;28;20053;-66
2021/12/23 07:57:04;;;;;;;3.13;1.77;;;;;;;-10.45;65.12;99144.06;5013965;28;20049;-67
2021/12/23 07:59:31;;;;;;;3.67;1.52;;;;;;;-10.42;65.00;99130.19;4996501;28;20468;-60
2021/12/23 08:01:58;;;;;;;0.85;0.65;;;;;;;-10.40;64.97;99138.06;5013556;28;20054;-59
2021/12/23 08:04:25;;;;;;;4.72;2.15;;;;;;;-10.45;64.45;99130.63;5014080;28;20073;-58
2021/12/23 08:06:55;;;;;;;10.60;4.55;;;;;;;-10.39;64.57;99135.16;5011967;28;20064;-59
2021/12/23 08:09:23;;;;;;;6.33;2.90;;;;;;;-10.19;64.58;99130.56;5013438;28;20140;-58
2021/12/23 08:11:50;;;;;;;2.28;1.48;;;;;;;-10.02;64.61;99137.13;5013834;28;20545;-61
2021/12/23 08:14:17;;;;;;;4.68;2.03;;;;;;;-9.86;63.83;99133.94;5014253;28;20053;-59
2021/12/23 08:16:45;;;;;;;4.10;2.10;;;;;;;-9.79;63.64;99129.38;5012621;28;20064;-61
2021/12/23 08:19:12;;;;;;;8.75;1.58;;;;;;;-9.73;63.50;99120.47;5013763;28;20038;-60
2021/12/23 08:21:39;;;;;;;5.90;2.40;;;;;;;-9.69;63.76;99121.69;5012265;28;20042;-60
2021/12/23 08:24:06;;;;;;;4.75;1.70;;;;;;;-9.59;63.17;99127.41;5013840;28;20046;-62
2021/12/23 08:26:40;;;;;;;5.65;1.65;;;;;;;-9.34;62.55;99129.34;5013538;28;20050;-60
2021/12/23 08:29:07;;;;;;;9.52;1.48;;;;;;;-8.83;61.26;99130.88;5008986;28;20510;-55
2021/12/23 08:31:36;;;;;;;4.50;2.13;;;;;;;-8.21;58.98;99124.47;5013427;28;20046;-49
2021/12/23 08:34:03;;;;;;;7.32;3.17;;;;;;;-7.87;58.87;99123.91;5013258;28;20516;-57
2021/12/23 08:36:30;;;;;;;3.85;2.13;;;;;;;-8.03;58.66;99124.50;5013337;28;20452;-54
2021/12/23 08:38:58;;;;;;;7.30;2.15;;;;;;;-8.04;59.09;99122.84;5011050;28;20052;-57
2021/12/23 08:41:25;;;;;;;5.30;2.53;;;;;;;-8.02;58.89;99126.16;5013902;28;20123;-57
2021/12/23 08:43:52;;;;;;;2.63;1.58;;;;;;;-8.20;59.43;99129.66;5012983;28;20386;-58
2021/12/23 08:46:20;;;;;;;6.68;3.03;;;;;;;-8.34;59.57;99130.03;5013665;28;20053;-51
2021/12/23 08:48:47;;;;;;;5.88;2.00;;;;;;;-8.44;59.86;99127.03;5012968;28;20124;-56
2021/12/23 08:51:14;;;;;;;4.07;2.17;;;;;;;-8.67;58.66;99121.44;5013064;28;20126;-55
2021/12/23 08:53:42;;;;;;;7.47;2.65;;;;;;;-8.81;59.40;99123.41;5011755;28;20057;-56
2021/12/23 08:56:09;;;;;;;9.90;3.47;;;;;;;-8.92;60.65;99123.31;5013358;28;20046;-57
2021/12/23 08:58:36;;;;;;;6.93;3.08;;;;;;;-8.87;59.65;99115.38;5012810;28;20136;-55
2021/12/23 09:01:04;;;;;;;8.50;2.85;;;;;;;-8.72;59.87;99124.78;5013024;28;20050;-57
2021/12/23 09:03:32;;;;;;;7.35;2.25;;;;;;;-8.75;60.51;99127.09;5013042;28;20060;-58
2021/12/23 09:06:01;;;;;;;4.55;1.65;;;;;;;-8.77;60.79;99124.59;5007981;28;20060;-51
2021/12/23 09:08:28;;;;;;;7.28;1.90;;;;;;;-8.86;59.98;99117.03;5007602;28;20068;-56
2021/12/23 09:10:58;;;;;;;3.53;1.88;;;;;;;-8.87;60.23;99120.75;5012540;28;20049;-57
2021/12/23 09:13:30;;;;;;;8.52;2.22;;;;;;;-8.87;60.96;99126.97;5004312;28;20049;-55
2021/12/23 09:16:06;;;;;;;6.03;2.15;;;;;;;-8.84;59.73;99120.31;5007574;28;20054;-56
2021/12/23 09:18:35;;;;;;;7.28;2.00;;;;;;;-8.88;61.12;99116.41;5011723;28;20052;-56
2021/12/23 09:21:03;;;;;;;7.68;2.35;;;;;;;-8.93;60.49;99110.84;5007745;28;20077;-56
2021/12/23 09:23:45;;;;;;;4.43;1.90;;;;;;;-9.00;60.71;99112.78;5011761;28;20618;-56
2021/12/23 09:33:15;;;;;;;5.47;2.20;;;;;;;-9.24;60.59;99092.03;4862364;26;20572;-61
2021/12/23 09:35:51;;;;;;;3.40;1.70;;;;;;;-9.22;59.93;99095.31;5048980;28;20504;-60
2021/12/23 09:38:26;;;;;;;2.78;1.67;;;;;;;-9.36;60.01;99085.69;5049805;28;20044;-61
2021/12/23 09:41:08;;;;;;;3.53;1.17;;;;;;;-9.42;59.88;99094.63;5048434;28;20051;-62
2021/12/23 09:43:39;;;;;;;8.75;2.35;;;;;;;-9.49;60.92;99088.44;5052626;28;20527;-61
2021/12/23 09:46:09;;;;;;;3.85;1.80;;;;;;;-9.52;60.95;99095.09;5049253;28;20053;-61
2021/12/23 09:48:42;;;;;;;10.57;2.35;;;;;;;-9.51;60.41;99090.53;5049079;28;20106;-61
2021/12/23 09:51:12;;;;;;;4.32;2.30;;;;;;;-9.50;61.40;99102.94;5049796;28;20512;-60
2021/12/23 09:53:45;;;;;;;1.98;1.48;;;;;;;-9.49;61.44;99099.22;5048633;28;20057;-62
2021/12/23 09:56:13;;;;;;;4.40;1.58;;;;;;;-9.47;60.70;99094.44;5044296;28;20087;-62
2021/12/23 09:58:40;;;;;;;3.03;1.25;;;;;;;-9.40;60.77;99087.16;5048781;28;20087;-63
2021/12/23 10:01:08;;;;;;;0.55;0.45;;;;;;;-9.40;60.76;99081.75;5048291;28;20068;-59
2021/12/23 10:03:37;;;;;;;3.70;1.70;;;;;;;-9.46;60.76;99085.31;5048944;28;20055;-61
2021/12/23 10:06:04;;;;;;;9.00;1.90;;;;;;;-9.38;60.35;99095.84;5048574;28;20122;-62
2021/12/23 10:08:32;;;;;;;1.75;0.65;;;;;;;-9.30;60.06;99087.50;5050388;28;20037;-62
2021/12/23 10:31:03;;;;;;;3.87;1.53;;;;;;;-9.26;60.76;99088.72;5052345;28;20040;-64
2021/12/23 10:37:14;;;;;;;7.93;2.22;;;;;;;-9.30;60.50;99085.63;5089746;27;20381;-67
2021/12/23 10:39:24;;;;;;;3.28;1.40;;;;;;;-9.22;60.99;99073.75;5072009;28;20056;-66
2021/12/23 10:42:08;;;;;;;3.25;1.13;;;;;;;-9.24;61.24;99081.25;5076476;28;20044;-67
2021/12/23 10:44:36;;;;;;;2.58;1.42;;;;;;;-9.30;60.89;99060.59;5067976;28;20466;-67
2021/12/23 10:47:03;;;;;;;6.55;1.73;;;;;;;-9.30;60.88;99068.66;5061427;28;20072;-67
2021/12/23 10:49:39;;;;;;;6.25;2.28;;;;;;;-9.25;61.26;99063.44;5085075;28;20052;-68
2021/12/23 10:52:15;;;;;;;3.42;1.90;;;;;;;-9.20;61.43;99056.38;5066680;28;20049;-67
2021/12/23 11:00:12;;;;;;;4.47;1.80;;;;;;;-9.15;61.17;99051.13;5065880;28;20049;-67
2021/12/23 11:02:41;;;;;;;2.08;0.88;;;;;;;-9.13;61.34;99051.75;5062047;28;20098;-66
2021/12/23 11:07:58;;;;;;;6.00;1.85;;;;;;;-9.19;61.57;99067.94;5056201;28;20053;-66
2021/12/23 11:43:59;;;;;;;5.20;2.00;;;;;;;-9.39;62.15;99043.06;5060678;28;20041;-67
2021/12/23 11:46:33;;;;;;;2.03;1.23;;;;;;;-9.41;61.72;99042.44;5046316;28;20071;-66
2021/12/23 11:49:02;;;;;;;3.88;1.95;;;;;;;-9.48;62.06;99037.09;5047284;28;20107;-66
2021/12/23 11:54:20;;;;;;;5.30;1.45;;;;;;;-9.63;62.70;99045.47;5049896;28;20404;-66
2021/12/23 11:56:58;;;;;;;4.82;1.95;;;;;;;-9.64;63.10;99054.59;5051837;28;20060;-66
2021/12/23 11:59:26;;;;;;;9.27;2.15;;;;;;;-9.65;62.31;99042.16;5054115;28;20057;-66
2021/12/23 12:01:55;;;;;;;2.40;0.98;;;;;;;-9.59;63.16;99045.88;5054426;28;20037;-67
2021/12/23 12:04:37;;;;;;;2.13;1.45;;;;;;;-9.67;63.15;99044.25;5066676;28;20139;-66
2021/12/23 12:07:17;;;;;;;2.47;1.08;;;;;;;-9.72;63.25;99046.75;5054528;28;20048;-67
2021/12/23 12:09:55;;;;;;;3.17;1.48;;;;;;;-9.77;63.67;99057.34;5052351;28;20049;-66
2021/12/23 12:12:23;;;;;;;4.40;2.10;;;;;;;-9.76;63.31;99048.25;5063447;28;20048;-66
2021/12/23 12:14:55;;;;;;;3.47;2.15;;;;;;;-9.78;63.66;99052.19;5049151;28;20420;-67
2021/12/23 12:17:25;;;;;;;3.85;1.73;;;;;;;-9.84;63.77;99048.50;5054421;28;20052;-66
2021/12/23 12:21:04;;;;;;;5.03;2.05;;;;;;;-9.91;63.64;99036.94;5053589;28;20436;-66
2021/12/23 12:23:44;;;;;;;4.13;2.13;;;;;;;-9.95;63.91;99045.66;5049468;28;20053;-66
2021/12/23 12:26:30;;;;;;;6.35;2.35;;;;;;;-9.97;63.98;99045.03;5061830;28;20472;-65
2021/12/23 12:28:58;;;;;;;5.75;2.08;;;;;;;-10.02;64.15;99044.84;5053813;28;20071;-66
2021/12/23 12:31:26;;;;;;;4.18;2.13;;;;;;;-10.09;64.53;99038.72;5056884;28;20090;-65
2021/12/23 12:34:30;;;;;;;4.00;1.80;;;;;;;-10.07;64.65;99042.84;5046604;28;20044;-65
2021/12/23 12:36:59;;;;;;;6.03;1.80;;;;;;;-10.11;64.17;99038.09;5033254;28;20428;-65
2021/12/23 12:39:46;;;;;;;3.72;1.80;;;;;;;-10.11;64.27;99040.78;5053014;28;20472;-66
2021/12/23 12:42:32;;;;;;;2.97;1.75;;;;;;;-10.15;63.97;99032.34;5059231;28;20036;-66
2021/12/23 12:45:10;;;;;;;7.28;2.47;;;;;;;-10.18;64.04;99030.09;5044662;28;20044;-65
2021/12/23 12:47:48;;;;;;;3.55;2.10;;;;;;;-10.13;64.34;99032.13;5064737;28;20427;-66
2021/12/23 12:50:20;;;;;;;4.00;1.92;;;;;;;-10.20;64.04;99026.75;5038405;28;20067;-66
2021/12/23 12:52:50;;;;;;;2.97;1.77;;;;;;;-10.20;64.14;99037.53;5042635;28;20060;-66
2021/12/23 12:55:26;;;;;;;6.15;2.53;;;;;;;-10.24;64.18;99025.56;5054970;28;20049;-67
2021/12/23 12:58:00;;;;;;;7.25;3.30;;;;;;;-10.23;64.37;99029.88;5049831;28;20061;-66
2021/12/23 13:00:37;;;;;;;5.57;2.25;;;;;;;-10.22;64.39;99039.59;5049883;28;20057;-66